Time;durP1;ratioP1;P1;durP2;ratioP2;P2;SDS_P1;SDS_P2;PMS_P1;PMS_P2;Temp;Humidity;BMP_temperature;BMP_pressure;BME280_temperature;BME280_humidity;BME280_pressure;Samples;Min_cycle;Max_cycle;Signal;HPM_P1;HPM_P2
2021/09/11 00:00:16;;;;;;;29.95;15.13;;;17.30;99.90;;;;;;4894491;29;39193;-82
2021/09/11 00:02:43;;;;;;;18.65;12.18;;;17.30;99.90;;;;;;4898361;29;37071;-81
2021/09/11 00:05:10;;;;;;;16.25;12.55;;;17.30;99.90;;;;;;4879146;29;37445;-81
2021/09/11 00:07:36;;;;;;;18.05;11.40;;;17.40;99.90;;;;;;4898488;29;38107;-78
2021/09/11 00:10:04;;;;;;;17.73;12.48;;;17.40;99.90;;;;;;4904593;29;38097;-80
2021/09/11 00:12:30;;;;;;;14.30;11.45;;;17.50;99.90;;;;;;4904033;29;48521;-82
2021/09/11 00:14:56;;;;;;;17.55;11.48;;;17.50;99.90;;;;;;4897300;29;38501;-82
2021/09/11 00:17:22;;;;;;;18.98;11.57;;;17.60;99.90;;;;;;4893981;29;37703;-82
2021/09/11 00:19:48;;;;;;;17.10;11.45;;;17.60;99.90;;;;;;4893399;29;39076;-82
2021/09/11 00:22:15;;;;;;;13.18;9.60;;;17.60;99.90;;;;;;4892742;29;38211;-82
2021/09/11 00:24:41;;;;;;;18.98;10.85;;;17.60;99.90;;;;;;4887211;29;39755;-82
2021/09/11 00:27:07;;;;;;;15.02;11.07;;;17.60;99.90;;;;;;4900896;29;38614;-82
2021/09/11 00:29:37;;;;;;;15.82;9.80;;;17.60;99.90;;;;;;4891660;29;38524;-82
2021/09/11 00:32:04;;;;;;;15.32;9.82;;;17.70;99.90;;;;;;4894760;29;36981;-81
2021/09/11 00:34:31;;;;;;;13.80;9.68;;;17.70;99.90;;;;;;4896131;29;36836;-82
2021/09/11 00:36:57;;;;;;;14.63;9.20;;;17.60;99.90;;;;;;4894245;29;38765;-82
2021/09/11 00:39:24;;;;;;;15.25;9.27;;;17.60;99.90;;;;;;4901895;29;38008;-82
2021/09/11 00:41:53;;;;;;;15.07;9.25;;;17.70;99.90;;;;;;4892663;29;36238;-82
2021/09/11 00:44:19;;;;;;;13.15;9.02;;;17.60;99.90;;;;;;4900505;29;40128;-82
2021/09/11 00:46:46;;;;;;;13.48;8.48;;;17.70;99.90;;;;;;4911824;28;37634;-82
2021/09/11 00:49:12;;;;;;;15.40;9.45;;;17.70;99.90;;;;;;4899107;29;41080;-82
2021/09/11 00:51:39;;;;;;;20.95;9.68;;;17.70;99.90;;;;;;4898720;29;37856;-82
2021/09/11 00:54:06;;;;;;;13.98;8.95;;;17.70;99.90;;;;;;4901672;29;38925;-81
2021/09/11 00:56:33;;;;;;;12.45;9.80;;;17.70;99.90;;;;;;4892961;29;39565;-82
2021/09/11 00:59:01;;;;;;;13.45;10.73;;;17.60;99.90;;;;;;4899986;29;38820;-82
2021/09/11 01:01:28;;;;;;;14.45;9.93;;;17.60;99.90;;;;;;4896642;29;38371;-82
2021/09/11 01:03:54;;;;;;;14.13;9.55;;;17.60;99.90;;;;;;4900253;29;39410;-82
2021/09/11 01:06:21;;;;;;;18.40;9.82;;;17.60;99.90;;;;;;4888215;29;39683;-82
2021/09/11 01:08:47;;;;;;;13.50;9.13;;;17.50;99.90;;;;;;4895000;29;38879;-82
2021/09/11 01:11:14;;;;;;;14.20;8.90;;;17.50;99.90;;;;;;4909773;29;37269;-82
2021/09/11 01:13:41;;;;;;;13.38;9.68;;;17.50;99.90;;;;;;4890178;29;39948;-83
2021/09/11 01:16:08;;;;;;;22.25;11.00;;;17.60;99.90;;;;;;4892937;29;40185;-82
2021/09/11 01:18:35;;;;;;;12.63;9.77;;;17.50;99.90;;;;;;4893993;29;39282;-82
2021/09/11 01:21:02;;;;;;;15.75;10.07;;;17.50;99.90;;;;;;4894132;29;38381;-79
2021/09/11 01:23:28;;;;;;;14.43;9.18;;;17.50;99.90;;;;;;4894457;29;37636;-82
2021/09/11 01:25:55;;;;;;;16.20;10.27;;;17.60;99.90;;;;;;4890177;29;39796;-81
2021/09/11 01:28:21;;;;;;;18.48;10.18;;;17.60;99.90;;;;;;4894389;29;38977;-82
2021/09/11 01:30:48;;;;;;;15.48;10.27;;;17.60;99.90;;;;;;4887753;29;37987;-82
2021/09/11 01:33:14;;;;;;;13.75;9.52;;;17.60;99.90;;;;;;4893037;29;40621;-81
2021/09/11 01:35:40;;;;;;;15.10;10.32;;;17.60;99.90;;;;;;4893968;29;38765;-82
2021/09/11 01:38:07;;;;;;;19.58;11.07;;;17.50;99.90;;;;;;4907720;29;37415;-81
2021/09/11 01:40:33;;;;;;;18.75;10.35;;;17.50;99.90;;;;;;4887474;29;39155;-82
2021/09/11 01:42:59;;;;;;;14.70;11.07;;;17.50;99.90;;;;;;4891936;29;39361;-81
2021/09/11 01:45:25;;;;;;;17.88;11.60;;;17.50;99.90;;;;;;4894274;29;39029;-81
2021/09/11 01:47:51;;;;;;;17.73;11.80;;;17.50;99.90;;;;;;4906737;29;38893;-82
2021/09/11 01:50:20;;;;;;;16.42;10.40;;;17.50;99.90;;;;;;4900770;29;38873;-82
2021/09/11 01:52:47;;;;;;;20.30;10.52;;;17.50;99.90;;;;;;4894987;29;37602;-82
2021/09/11 01:55:15;;;;;;;20.40;11.13;;;17.50;99.90;;;;;;4884135;29;39915;-82
2021/09/11 01:57:43;;;;;;;21.95;10.30;;;17.50;99.90;;;;;;4899507;29;38235;-82
2021/09/11 02:00:14;;;;;;;21.52;11.52;;;17.50;99.90;;;;;;4891810;29;36982;-81
2021/09/11 02:02:41;;;;;;;15.68;9.88;;;17.50;99.90;;;;;;4906230;29;38305;-81
2021/09/11 02:05:09;;;;;;;19.10;10.23;;;17.50;99.90;;;;;;4893524;29;38463;-81
2021/09/11 02:07:36;;;;;;;18.15;10.20;;;17.50;99.90;;;;;;4894582;29;38222;-82
2021/09/11 02:10:04;;;;;;;20.10;11.20;;;17.50;99.90;;;;;;4888546;29;37997;-81
2021/09/11 02:12:31;;;;;;;17.15;10.40;;;17.50;99.90;;;;;;4885437;29;47160;-81
2021/09/11 02:14:57;;;;;;;21.42;11.25;;;17.50;99.90;;;;;;4885433;29;39869;-81
2021/09/11 02:17:23;;;;;;;18.00;11.68;;;17.50;99.90;;;;;;4893500;29;38288;-81
2021/09/11 02:19:49;;;;;;;19.38;12.13;;;17.50;99.90;;;;;;4886563;29;37989;-81
2021/09/11 02:22:16;;;;;;;22.52;12.52;;;17.50;99.90;;;;;;4904648;29;37863;-81
2021/09/11 02:24:42;;;;;;;19.35;12.43;;;17.50;99.90;;;;;;4909089;29;39508;-81
2021/09/11 02:27:08;;;;;;;20.35;12.38;;;17.50;99.90;;;;;;4891018;29;38441;-81
2021/09/11 02:29:34;;;;;;;21.08;12.65;;;17.50;99.90;;;;;;4895989;29;38004;-81
2021/09/11 02:32:01;;;;;;;23.48;13.00;;;17.50;99.90;;;;;;4889188;29;42040;-81
2021/09/11 02:34:28;;;;;;;21.92;12.50;;;17.50;99.90;;;;;;4883855;29;47251;-81
2021/09/11 02:36:55;;;;;;;22.15;12.25;;;17.50;99.90;;;;;;4897187;29;38844;-81
2021/09/11 02:39:21;;;;;;;19.85;10.27;;;17.50;99.90;;;;;;4876293;29;38851;-81
2021/09/11 02:41:48;;;;;;;18.00;11.10;;;17.50;99.90;;;;;;4873478;29;37589;-82
2021/09/11 02:44:14;;;;;;;23.77;12.13;;;17.50;99.90;;;;;;4887094;29;37340;-82
2021/09/11 02:46:40;;;;;;;15.98;11.40;;;17.50;99.90;;;;;;4867469;29;39139;-81
2021/09/11 02:49:06;;;;;;;19.65;11.00;;;17.50;99.90;;;;;;4891264;29;37519;-81
2021/09/11 02:51:32;;;;;;;19.67;11.88;;;17.40;99.90;;;;;;4894672;29;39017;-82
2021/09/11 02:53:59;;;;;;;16.50;10.95;;;17.40;99.90;;;;;;4890727;29;38450;-81
2021/09/11 02:56:25;;;;;;;19.98;10.70;;;17.50;99.90;;;;;;4892159;29;38304;-81
2021/09/11 02:58:52;;;;;;;19.80;11.50;;;17.40;99.90;;;;;;4888313;29;38089;-81
2021/09/11 03:01:18;;;;;;;22.15;11.90;;;17.40;99.90;;;;;;4872099;29;40627;-82
2021/09/11 03:03:44;;;;;;;20.02;10.77;;;17.40;99.90;;;;;;4888062;29;38564;-82
2021/09/11 03:06:10;;;;;;;26.77;11.55;;;17.40;99.90;;;;;;4887179;29;38718;-81
2021/09/11 03:08:37;;;;;;;16.90;10.30;;;17.40;99.90;;;;;;4889331;29;36690;-82
2021/09/11 03:11:03;;;;;;;20.33;10.80;;;17.40;99.90;;;;;;4894235;29;38563;-81
2021/09/11 03:13:29;;;;;;;20.10;10.88;;;17.40;99.90;;;;;;4894409;29;39260;-82
2021/09/11 03:15:57;;;;;;;22.90;11.95;;;17.40;99.90;;;;;;4893525;29;39536;-82
2021/09/11 03:18:24;;;;;;;23.10;11.05;;;17.50;99.90;;;;;;4891158;29;36176;-81
2021/09/11 03:20:50;;;;;;;19.63;10.45;;;17.50;99.90;;;;;;4889975;29;39135;-81
2021/09/11 03:23:16;;;;;;;21.95;11.32;;;17.50;99.90;;;;;;4895317;29;38894;-82
2021/09/11 03:25:42;;;;;;;19.60;10.25;;;17.40;99.90;;;;;;4886283;29;39434;-81
2021/09/11 03:28:09;;;;;;;17.20;10.70;;;17.40;99.90;;;;;;4888381;29;37753;-81
2021/09/11 03:30:35;;;;;;;18.77;10.40;;;17.40;99.90;;;;;;4893577;29;37980;-81
2021/09/11 03:33:02;;;;;;;22.70;11.98;;;17.40;99.90;;;;;;4900263;29;39126;-81
2021/09/11 03:35:28;;;;;;;17.63;11.23;;;17.40;99.90;;;;;;4878391;29;47238;-81
2021/09/11 03:37:55;;;;;;;22.45;12.50;;;17.40;99.90;;;;;;4893894;29;37559;-81
2021/09/11 03:40:21;;;;;;;18.00;11.10;;;17.30;99.90;;;;;;4874950;29;37697;-81
2021/09/11 03:42:47;;;;;;;24.27;12.93;;;17.30;99.90;;;;;;4893050;29;40552;-81
2021/09/11 03:45:13;;;;;;;21.63;12.38;;;17.30;99.90;;;;;;4891403;29;39514;-81
2021/09/11 03:47:41;;;;;;;16.25;11.75;;;17.30;99.90;;;;;;4876282;29;38092;-81
2021/09/11 03:50:08;;;;;;;16.88;11.13;;;17.30;99.90;;;;;;4888013;29;38780;-81
2021/09/11 03:52:34;;;;;;;18.55;10.90;;;17.30;99.90;;;;;;4884824;29;38034;-81
2021/09/11 03:55:00;;;;;;;25.02;13.55;;;17.30;99.90;;;;;;4893575;29;38595;-81
2021/09/11 03:57:26;;;;;;;18.42;11.70;;;17.30;99.90;;;;;;4905516;29;38896;-81
2021/09/11 03:59:52;;;;;;;20.92;10.68;;;17.30;99.90;;;;;;4894909;29;35578;-81
2021/09/11 04:02:19;;;;;;;20.13;10.88;;;17.20;99.90;;;;;;4886003;29;39860;-82
2021/09/11 04:04:45;;;;;;;18.10;10.77;;;17.20;99.90;;;;;;4894039;29;38207;-81
2021/09/11 04:07:11;;;;;;;20.52;11.77;;;17.30;99.90;;;;;;4905025;29;36390;-81
2021/09/11 04:09:37;;;;;;;18.63;10.98;;;17.20;99.90;;;;;;4881807;29;39814;-81
2021/09/11 04:12:03;;;;;;;19.50;10.70;;;17.30;99.90;;;;;;4891098;29;37424;-81
2021/09/11 04:14:29;;;;;;;15.27;10.68;;;17.20;99.90;;;;;;4877989;29;38341;-81
2021/09/11 04:16:56;;;;;;;18.05;11.57;;;17.30;99.90;;;;;;4887328;29;38374;-81
2021/09/11 04:19:22;;;;;;;20.00;10.50;;;17.30;99.90;;;;;;4890050;29;39216;-81
2021/09/11 04:21:48;;;;;;;16.65;9.50;;;17.30;99.90;;;;;;4893223;29;38631;-82
2021/09/11 04:24:14;;;;;;;19.00;10.60;;;17.30;99.90;;;;;;4905676;29;39278;-81
2021/09/11 04:26:40;;;;;;;18.67;11.88;;;17.30;99.90;;;;;;4893514;29;37504;-82
2021/09/11 04:29:06;;;;;;;15.82;10.52;;;17.30;99.90;;;;;;4889357;29;39118;-81
2021/09/11 04:31:33;;;;;;;20.08;10.75;;;17.40;99.90;;;;;;4900193;29;39973;-81
2021/09/11 04:33:59;;;;;;;17.40;10.88;;;17.30;99.90;;;;;;4905872;29;37216;-82
2021/09/11 04:36:25;;;;;;;23.50;12.15;;;17.40;99.90;;;;;;4891048;29;37709;-81
2021/09/11 04:38:51;;;;;;;24.55;11.10;;;17.40;99.90;;;;;;4889691;29;39402;-82
2021/09/11 04:41:17;;;;;;;21.92;12.43;;;17.40;99.90;;;;;;4890984;29;39296;-81
2021/09/11 04:43:43;;;;;;;21.17;13.50;;;17.40;99.90;;;;;;4881196;29;39081;-82
2021/09/11 04:46:09;;;;;;;22.77;13.15;;;17.40;99.90;;;;;;4889310;29;36557;-81
2021/09/11 04:48:35;;;;;;;22.50;14.20;;;17.40;99.90;;;;;;4899879;29;38488;-82
2021/09/11 04:51:01;;;;;;;25.85;14.88;;;17.30;99.90;;;;;;4891287;29;38745;-81
2021/09/11 04:53:27;;;;;;;22.38;15.23;;;17.30;99.90;;;;;;4886206;29;38695;-82
2021/09/11 04:55:54;;;;;;;24.58;15.63;;;17.30;99.90;;;;;;4889550;29;37855;-81
2021/09/11 04:58:20;;;;;;;29.52;15.10;;;17.30;99.90;;;;;;4891415;29;38706;-82
2021/09/11 05:00:46;;;;;;;35.28;16.33;;;17.30;99.90;;;;;;4893888;29;38468;-81
2021/09/11 05:03:12;;;;;;;27.83;15.50;;;17.40;99.90;;;;;;4892426;29;39068;-81
2021/09/11 05:05:38;;;;;;;26.80;15.65;;;17.30;99.90;;;;;;4892499;29;38233;-81
2021/09/11 05:08:04;;;;;;;28.65;16.23;;;17.40;99.90;;;;;;4886912;29;40441;-79
2021/09/11 05:10:30;;;;;;;27.13;16.02;;;17.30;99.90;;;;;;4878347;29;39157;-82
2021/09/11 05:12:56;;;;;;;24.63;16.52;;;17.30;99.90;;;;;;4891416;29;39302;-81
2021/09/11 05:15:22;;;;;;;26.42;15.38;;;17.30;99.90;;;;;;4878744;29;38029;-81
2021/09/11 05:17:49;;;;;;;28.77;14.93;;;17.30;99.90;;;;;;4904556;29;38195;-81
2021/09/11 05:20:16;;;;;;;26.00;15.82;;;17.30;99.90;;;;;;4886763;29;39668;-81
2021/09/11 05:22:42;;;;;;;27.85;17.67;;;17.30;99.90;;;;;;4882631;29;40116;-80
2021/09/11 05:25:13;;;;;;;30.67;15.40;;;17.40;99.90;;;;;;4889976;29;37577;-81
2021/09/11 05:27:40;;;;;;;26.77;16.77;;;17.40;99.90;;;;;;4900924;28;39427;-81
2021/09/11 05:30:08;;;;;;;27.73;16.90;;;17.40;99.90;;;;;;4888167;29;39276;-82
2021/09/11 05:32:34;;;;;;;27.73;17.75;;;17.40;99.90;;;;;;4881572;29;46881;-81
2021/09/11 05:35:00;;;;;;;24.13;17.13;;;17.40;99.90;;;;;;4889941;29;38579;-81
2021/09/11 05:37:26;;;;;;;24.13;17.48;;;17.40;99.90;;;;;;4888108;29;47532;-82
2021/09/11 05:39:52;;;;;;;27.77;16.42;;;17.40;99.90;;;;;;4887159;29;39437;-82
2021/09/11 05:42:19;;;;;;;29.50;17.40;;;17.50;99.90;;;;;;4894482;29;38952;-81
2021/09/11 05:44:45;;;;;;;28.35;18.08;;;17.50;99.90;;;;;;4885525;29;36046;-81
2021/09/11 05:47:12;;;;;;;26.33;17.10;;;17.50;99.90;;;;;;4895903;29;39012;-81
2021/09/11 05:49:38;;;;;;;27.08;18.05;;;17.50;99.90;;;;;;4884334;29;39481;-82
2021/09/11 05:52:04;;;;;;;30.63;18.00;;;17.50;99.90;;;;;;4888059;29;39387;-81
2021/09/11 05:54:30;;;;;;;26.02;16.70;;;17.50;99.90;;;;;;4890052;29;38371;-81
2021/09/11 05:56:56;;;;;;;27.55;18.10;;;17.50;99.90;;;;;;4886830;28;38489;-81
2021/09/11 05:59:22;;;;;;;28.67;16.58;;;17.50;99.90;;;;;;4889358;29;38837;-82
2021/09/11 06:01:48;;;;;;;24.95;16.10;;;17.50;99.90;;;;;;4891561;29;38648;-81
2021/09/11 06:04:14;;;;;;;26.20;17.08;;;17.50;99.90;;;;;;4889757;28;37713;-81
2021/09/11 06:06:41;;;;;;;23.95;16.45;;;17.50;99.90;;;;;;4898715;29;42011;-81
2021/09/11 06:09:07;;;;;;;26.15;16.10;;;17.50;99.90;;;;;;4887520;29;38914;-81
2021/09/11 06:11:33;;;;;;;21.77;15.43;;;17.50;99.90;;;;;;4879629;29;38299;-81
2021/09/11 06:13:59;;;;;;;23.48;15.18;;;17.60;99.90;;;;;;4885261;28;35474;-81
2021/09/11 06:16:25;;;;;;;27.42;15.93;;;17.60;99.90;;;;;;4887010;29;38367;-81
2021/09/11 06:18:51;;;;;;;22.33;14.95;;;17.60;99.90;;;;;;4889732;29;39381;-81
2021/09/11 06:21:17;;;;;;;22.75;15.48;;;17.60;99.90;;;;;;4888736;29;39797;-81
2021/09/11 06:23:43;;;;;;;29.70;16.30;;;17.60;99.90;;;;;;4891457;29;37688;-82
2021/09/11 06:26:09;;;;;;;22.58;14.77;;;17.60;99.90;;;;;;4882802;29;39983;-81
2021/09/11 06:28:35;;;;;;;25.10;15.00;;;17.60;99.90;;;;;;4882959;29;37439;-81
2021/09/11 06:31:01;;;;;;;23.67;15.50;;;17.60;99.90;;;;;;4886152;29;38281;-81
2021/09/11 06:33:28;;;;;;;23.45;16.48;;;17.60;99.90;;;;;;4891680;29;37601;-81
2021/09/11 06:35:54;;;;;;;22.70;16.52;;;17.70;99.90;;;;;;4888400;28;40432;-81
2021/09/11 06:38:20;;;;;;;29.88;17.92;;;17.70;99.90;;;;;;4893819;29;39311;-81
2021/09/11 06:40:46;;;;;;;28.15;17.00;;;17.70;99.90;;;;;;4897592;29;39394;-82
2021/09/11 06:43:12;;;;;;;24.10;16.40;;;17.60;99.90;;;;;;4901535;29;37343;-82
2021/09/11 06:45:38;;;;;;;23.70;16.33;;;17.70;99.90;;;;;;4886133;29;39621;-82
2021/09/11 06:48:04;;;;;;;31.45;16.83;;;17.70;99.90;;;;;;4898969;29;40483;-81
2021/09/11 06:50:30;;;;;;;26.80;14.25;;;17.70;99.90;;;;;;4905405;29;39335;-81
2021/09/11 06:52:56;;;;;;;25.75;14.65;;;17.80;99.90;;;;;;4906103;29;37490;-82
2021/09/11 06:55:22;;;;;;;22.05;14.02;;;17.80;99.90;;;;;;4905925;29;37638;-82
2021/09/11 06:57:48;;;;;;;20.50;13.30;;;17.80;99.90;;;;;;4893543;29;35582;-82
2021/09/11 07:00:15;;;;;;;18.83;14.55;;;17.80;99.90;;;;;;4911780;29;38861;-82
2021/09/11 07:02:41;;;;;;;26.05;13.98;;;17.90;99.90;;;;;;4893865;29;36850;-81
2021/09/11 07:05:07;;;;;;;25.52;15.05;;;17.90;99.90;;;;;;4910065;29;40175;-82
2021/09/11 07:07:33;;;;;;;25.05;13.32;;;17.90;99.90;;;;;;4890971;29;39335;-81
2021/09/11 07:09:59;;;;;;;26.80;14.15;;;17.90;99.90;;;;;;4908082;29;38134;-81
2021/09/11 07:12:26;;;;;;;24.27;14.50;;;17.90;99.90;;;;;;4910039;29;36826;-81
2021/09/11 07:14:52;;;;;;;23.02;14.25;;;17.90;99.90;;;;;;4909942;29;38585;-81
2021/09/11 07:17:18;;;;;;;23.15;14.70;;;17.90;99.90;;;;;;4901570;29;39590;-81
2021/09/11 07:19:45;;;;;;;25.20;15.32;;;17.80;99.90;;;;;;4911822;29;38576;-81
2021/09/11 07:22:11;;;;;;;25.85;16.20;;;17.90;99.90;;;;;;4907379;29;38344;-83
2021/09/11 07:24:37;;;;;;;21.83;13.75;;;17.90;99.90;;;;;;4893346;29;37902;-81
2021/09/11 07:27:03;;;;;;;20.58;15.10;;;17.90;99.90;;;;;;4913647;29;39465;-81
2021/09/11 07:29:29;;;;;;;24.00;15.35;;;18.00;99.90;;;;;;4911799;29;37024;-82
2021/09/11 07:31:55;;;;;;;26.83;15.50;;;18.00;99.90;;;;;;4912182;29;37598;-81
2021/09/11 07:34:21;;;;;;;28.02;15.70;;;18.10;99.90;;;;;;4895751;29;39119;-81
2021/09/11 07:36:47;;;;;;;26.00;16.98;;;18.10;99.90;;;;;;4912835;29;37181;-81
2021/09/11 07:39:15;;;;;;;21.88;15.73;;;18.20;99.90;;;;;;4897323;29;38801;-82
2021/09/11 07:41:42;;;;;;;25.77;16.48;;;18.20;99.90;;;;;;4901993;29;38409;-82
2021/09/11 07:44:08;;;;;;;24.08;17.05;;;18.20;99.90;;;;;;4911238;29;38744;-81
2021/09/11 07:46:34;;;;;;;24.85;14.90;;;18.20;99.90;;;;;;4909022;29;38724;-82
2021/09/11 07:49:00;;;;;;;23.90;14.65;;;18.30;99.90;;;;;;4896149;29;38772;-81
2021/09/11 07:51:26;;;;;;;24.58;15.73;;;18.40;99.90;;;;;;4914181;29;38925;-81
2021/09/11 07:53:52;;;;;;;23.50;14.85;;;18.40;99.90;;;;;;4915764;29;38940;-82
2021/09/11 07:56:19;;;;;;;29.48;15.98;;;18.50;99.90;;;;;;4900190;29;39318;-83
2021/09/11 07:58:46;;;;;;;24.60;15.63;;;18.40;99.90;;;;;;4914154;29;37162;-81
2021/09/11 08:01:12;;;;;;;27.67;15.35;;;18.40;99.90;;;;;;4915664;29;37412;-82
2021/09/11 08:03:38;;;;;;;22.15;15.45;;;18.40;99.90;;;;;;4907014;29;40213;-82
2021/09/11 08:06:08;;;;;;;20.25;13.80;;;18.40;99.90;;;;;;4914321;29;38551;-82
2021/09/11 08:08:39;;;;;;;25.98;15.55;;;18.50;99.90;;;;;;4913014;29;38467;-80
2021/09/11 08:11:06;;;;;;;23.85;14.38;;;18.50;99.90;;;;;;4905928;29;37697;-79
2021/09/11 08:13:32;;;;;;;21.85;15.18;;;18.60;99.90;;;;;;4906696;29;38945;-80
2021/09/11 08:15:59;;;;;;;23.13;13.93;;;18.70;99.90;;;;;;4898616;29;38681;-82
2021/09/11 08:18:25;;;;;;;25.45;14.48;;;18.80;99.90;;;;;;4909656;29;38528;-79
2021/09/11 08:20:52;;;;;;;20.60;13.93;;;18.90;99.90;;;;;;4908649;29;37568;-80
2021/09/11 08:23:19;;;;;;;22.55;14.20;;;18.90;99.90;;;;;;4911239;29;38509;-81
2021/09/11 08:25:46;;;;;;;23.38;14.75;;;19.00;99.90;;;;;;4911511;29;39759;-80
2021/09/11 08:28:13;;;;;;;22.42;15.50;;;19.00;99.90;;;;;;4889931;29;37813;-80
2021/09/11 08:30:40;;;;;;;22.80;15.18;;;19.00;99.90;;;;;;4907258;29;36492;-80
2021/09/11 08:33:06;;;;;;;25.08;17.00;;;19.10;99.90;;;;;;4905126;29;40046;-80
2021/09/11 08:35:32;;;;;;;24.20;17.88;;;19.10;99.90;;;;;;4910994;29;38846;-81
2021/09/11 08:37:58;;;;;;;25.23;18.83;;;18.90;99.90;;;;;;4903041;28;39059;-80
2021/09/11 08:40:24;;;;;;;27.95;19.73;;;18.90;99.90;;;;;;4908824;29;37571;-79
2021/09/11 08:42:50;;;;;;;25.02;20.08;;;18.90;99.90;;;;;;4905293;29;39275;-79
2021/09/11 08:45:16;;;;;;;29.05;20.95;;;18.90;99.90;;;;;;4906384;29;38682;-79
2021/09/11 08:47:47;;;;;;;30.08;22.48;;;18.90;99.90;;;;;;4908022;29;38284;-78
2021/09/11 08:50:16;;;;;;;30.17;21.40;;;18.80;99.90;;;;;;4905853;29;37641;-78
2021/09/11 08:52:45;;;;;;;26.27;21.23;;;18.70;99.90;;;;;;4911952;29;39904;-78
2021/09/11 08:55:13;;;;;;;26.95;20.02;;;18.60;99.90;;;;;;4909638;29;39311;-78
2021/09/11 08:57:39;;;;;;;27.35;22.17;;;18.50;99.90;;;;;;4902749;29;38412;-78
2021/09/11 09:00:07;;;;;;;30.33;22.35;;;18.50;99.90;;;;;;4881170;29;37925;-77
2021/09/11 09:02:34;;;;;;;30.75;22.80;;;18.50;99.90;;;;;;4892411;29;47314;-78
2021/09/11 09:05:02;;;;;;;35.80;24.65;;;18.50;99.90;;;;;;4907335;29;38686;-78
2021/09/11 09:07:31;;;;;;;32.85;23.52;;;18.60;99.90;;;;;;4904559;29;47371;-78
2021/09/11 09:10:23;;;;;;;28.17;22.10;;;18.60;99.90;;;;;;4905792;29;37295;-78
2021/09/11 09:12:49;;;;;;;29.67;23.00;;;18.60;99.90;;;;;;4896802;29;48436;-79
2021/09/11 09:15:18;;;;;;;33.13;23.92;;;18.50;99.90;;;;;;4886627;29;38099;-78
2021/09/11 09:17:47;;;;;;;30.95;22.20;;;18.50;99.90;;;;;;4906181;29;39704;-78
2021/09/11 09:20:22;;;;;;;32.20;21.65;;;18.60;99.90;;;;;;4907527;29;37803;-78
2021/09/11 09:23:19;;;;;;;25.77;20.45;;;18.60;99.90;;;;;;4905157;29;39005;-79
2021/09/11 09:25:46;;;;;;;22.15;17.55;;;18.60;99.90;;;;;;4887453;29;47409;-78
2021/09/11 09:28:14;;;;;;;18.77;16.15;;;18.60;99.90;;;;;;4908087;29;39998;-79
2021/09/11 09:30:48;;;;;;;18.92;15.65;;;18.80;99.90;;;;;;4909775;29;36087;-78
2021/09/11 09:33:34;;;;;;;21.25;16.55;;;18.80;99.90;;;;;;4900318;29;37638;-79
2021/09/11 09:36:01;;;;;;;17.48;15.45;;;18.90;99.90;;;;;;4905399;29;38805;-78
2021/09/11 09:38:27;;;;;;;19.25;14.82;;;18.80;99.90;;;;;;4891961;29;48065;-79
2021/09/11 09:40:54;;;;;;;15.55;13.90;;;19.00;99.90;;;;;;4891588;29;36625;-79
2021/09/11 09:43:32;;;;;;;17.08;12.45;;;19.10;99.90;;;;;;4905785;29;38589;-78
2021/09/11 09:46:06;;;;;;;16.30;13.60;;;19.30;99.90;;;;;;4907718;29;37646;-79
2021/09/11 09:48:36;;;;;;;16.02;11.90;;;19.40;99.90;;;;;;4888810;29;48380;-77
2021/09/11 09:51:09;;;;;;;18.77;12.93;;;19.50;99.90;;;;;;4907485;29;38481;-76
2021/09/11 09:53:38;;;;;;;15.65;12.93;;;19.60;99.90;;;;;;4908419;29;40364;-77
2021/09/11 09:56:04;;;;;;;18.88;14.45;;;19.60;99.90;;;;;;4906032;29;39623;-76
2021/09/11 09:58:31;;;;;;;16.65;13.18;;;19.60;99.90;;;;;;4892711;29;37568;-77
2021/09/11 10:00:58;;;;;;;15.75;12.52;;;19.60;99.90;;;;;;4915134;29;37041;-77
2021/09/11 10:03:24;;;;;;;16.75;12.30;;;19.70;99.90;;;;;;4909339;29;38286;-76
2021/09/11 10:05:55;;;;;;;15.25;11.85;;;19.70;99.90;;;;;;4908062;29;38340;-76
2021/09/11 10:08:22;;;;;;;14.18;11.40;;;19.60;99.90;;;;;;4905357;29;37716;-76
2021/09/11 10:10:49;;;;;;;12.32;11.02;;;19.80;99.90;;;;;;4888037;29;36746;-76
2021/09/11 10:13:19;;;;;;;14.18;12.07;;;19.80;99.90;;;;;;4902289;29;39540;-77
2021/09/11 10:15:56;;;;;;;15.32;12.35;;;19.70;99.90;;;;;;4907400;29;39855;-77
2021/09/11 10:18:34;;;;;;;15.00;12.52;;;19.70;99.90;;;;;;4894051;29;37216;-76
2021/09/11 10:21:17;;;;;;;14.20;10.85;;;19.80;99.90;;;;;;4899706;29;37331;-76
2021/09/11 10:24:05;;;;;;;15.75;12.13;;;19.90;99.90;;;;;;4905552;29;47079;-76
2021/09/11 10:26:46;;;;;;;15.77;12.57;;;20.10;99.90;;;;;;4904378;29;47494;-76
2021/09/11 10:29:33;;;;;;;15.80;11.82;;;20.10;99.90;;;;;;4883909;29;37781;-76
2021/09/11 10:32:00;;;;;;;15.30;11.30;;;20.10;99.90;;;;;;4901613;29;38578;-76
2021/09/11 10:35:00;;;;;;;16.58;11.88;;;20.40;99.90;;;;;;4899287;29;38764;-76
2021/09/11 10:37:44;;;;;;;16.75;12.07;;;20.60;99.90;;;;;;4903216;29;38863;-77
2021/09/11 10:40:24;;;;;;;15.57;11.80;;;20.40;99.90;;;;;;4903831;29;38640;-77
2021/09/11 10:43:17;;;;;;;13.90;11.75;;;20.40;99.90;;;;;;4901541;29;36844;-77
2021/09/11 10:45:43;;;;;;;;;;;20.40;99.90;;;;;;4905428;29;48722;-77
2021/09/11 10:48:30;;;;;;;13.55;11.02;;;20.60;99.90;;;;;;4905939;29;38520;-78
2021/09/11 10:50:56;;;;;;;15.05;11.50;;;20.70;99.90;;;;;;4883377;29;38381;-77
2021/09/11 10:53:24;;;;;;;14.38;11.35;;;21.00;99.90;;;;;;4904200;29;36598;-77
2021/09/11 10:55:50;;;;;;;12.75;10.90;;;21.10;99.90;;;;;;4904191;29;39883;-78
2021/09/11 10:58:23;;;;;;;15.13;11.75;;;21.00;99.90;;;;;;4909438;29;38580;-78
2021/09/11 11:01:00;;;;;;;12.88;10.52;;;20.80;99.90;;;;;;4892827;29;37796;-76
2021/09/11 11:03:27;;;;;;;13.48;11.10;;;20.60;99.90;;;;;;4909054;29;47666;-77
2021/09/11 11:06:06;;;;;;;14.77;11.55;;;20.40;99.90;;;;;;4909984;29;39143;-77
2021/09/11 11:08:32;;;;;;;16.98;12.10;;;20.20;99.90;;;;;;4909312;29;49143;-79
2021/09/11 11:11:03;;;;;;;13.77;11.43;;;20.10;99.90;;;;;;4904999;29;38642;-77
2021/09/11 11:13:29;;;;;;;15.70;13.00;;;20.10;99.90;;;;;;4905543;29;47517;-77
2021/09/11 11:15:57;;;;;;;16.77;12.82;;;20.00;99.90;;;;;;4886985;29;37548;-77
2021/09/11 11:18:28;;;;;;;14.63;12.18;;;20.00;99.90;;;;;;4906160;29;38761;-76
2021/09/11 11:20:54;;;;;;;14.20;10.60;;;20.10;99.90;;;;;;4909667;29;39371;-77
2021/09/11 11:23:21;;;;;;;14.20;9.90;;;20.20;99.90;;;;;;4908856;29;37825;-77
2021/09/11 11:25:50;;;;;;;8.65;5.80;;;20.20;99.90;;;;;;4907726;29;38990;-77
2021/09/11 11:28:18;;;;;;;4.63;3.13;;;20.00;99.90;;;;;;4899613;29;38368;-77
2021/09/11 11:30:47;;;;;;;8.13;2.80;;;19.80;99.90;;;;;;4906983;29;38256;-76
2021/09/11 11:33:13;;;;;;;3.70;2.78;;;19.60;99.90;;;;;;4885662;29;36844;-75
2021/09/11 11:35:40;;;;;;;3.40;2.55;;;19.30;99.90;;;;;;4906703;29;38491;-78
2021/09/11 11:38:07;;;;;;;3.70;2.67;;;19.30;99.90;;;;;;4887780;29;37649;-78
2021/09/11 11:40:33;;;;;;;3.65;2.35;;;19.20;99.90;;;;;;4905490;29;39165;-78
2021/09/11 11:43:04;;;;;;;3.90;2.80;;;19.30;99.90;;;;;;4905498;29;37111;-76
2021/09/11 11:45:31;;;;;;;2.88;1.95;;;19.50;99.90;;;;;;4901015;29;49218;-76
2021/09/11 11:48:14;;;;;;;3.72;2.40;;;19.60;99.90;;;;;;4891893;29;37580;-76
2021/09/11 11:50:43;;;;;;;2.85;2.63;;;19.80;99.90;;;;;;4909286;28;48194;-77
2021/09/11 11:53:15;;;;;;;3.17;2.60;;;20.10;99.90;;;;;;4889253;29;36466;-77
2021/09/11 11:55:52;;;;;;;3.00;2.67;;;20.30;99.90;;;;;;4893628;29;37506;-76
2021/09/11 11:58:30;;;;;;;2.03;1.80;;;20.60;99.90;;;;;;4915855;29;37739;-76
2021/09/11 12:00:58;;;;;;;1.30;1.05;;;20.70;99.90;;;;;;4919489;29;39034;-77
2021/09/11 12:03:34;;;;;;;1.13;0.88;;;20.70;99.90;;;;;;4896744;29;39165;-76
2021/09/11 12:06:02;;;;;;;0.80;0.80;;;20.70;99.90;;;;;;4908503;28;37646;-77
2021/09/11 12:08:29;;;;;;;1.15;0.90;;;20.70;99.90;;;;;;4907967;29;49117;-77
2021/09/11 12:10:56;;;;;;;1.00;0.93;;;20.70;99.90;;;;;;4905023;29;38549;-76
2021/09/11 12:13:24;;;;;;;2.35;2.10;;;20.80;99.90;;;;;;4912126;29;36700;-77
2021/09/11 12:15:50;;;;;;;1.95;1.83;;;20.80;99.90;;;;;;4899292;29;38894;-77
2021/09/11 12:18:17;;;;;;;2.40;2.20;;;20.90;99.90;;;;;;4908555;29;39081;-77
2021/09/11 12:20:45;;;;;;;3.03;2.70;;;20.80;99.90;;;;;;4919132;29;37359;-77
2021/09/11 12:23:21;;;;;;;4.45;3.70;;;20.80;99.90;;;;;;4912188;29;37702;-77
2021/09/11 12:25:51;;;;;;;3.17;2.88;;;20.90;99.90;;;;;;4909623;29;38867;-77
2021/09/11 12:28:48;;;;;;;6.32;4.10;;;21.20;99.90;;;;;;4912275;29;38659;-77
2021/09/11 12:31:19;;;;;;;3.95;3.53;;;21.30;99.90;;;;;;4910964;29;39374;-77
2021/09/11 12:34:03;;;;;;;6.43;3.92;;;21.40;99.90;;;;;;4909854;29;38775;-76